Time;durP1;ratioP1;P1;durP2;ratioP2;P2;SDS_P1;SDS_P2;PMS_P1;PMS_P2;Temp;Humidity;BMP_temperature;BMP_pressure;BME280_temperature;BME280_humidity;BME280_pressure;Samples;Min_cycle;Max_cycle;Signal;HPM_P1;HPM_P2
2021/08/23 00:02:12;;;;;;;5.65;4.30;;;15.00;99.90;;;;;;4980431;28;20117;-50
2021/08/23 00:04:38;;;;;;;6.68;4.25;;;15.00;99.90;;;;;;4978050;28;20023;-50
2021/08/23 00:07:04;;;;;;;3.97;3.40;;;15.00;99.90;;;;;;4980774;28;20030;-54
2021/08/23 00:09:30;;;;;;;7.88;4.32;;;15.00;99.90;;;;;;4979287;28;20658;-52
2021/08/23 00:11:57;;;;;;;5.10;3.97;;;15.00;99.90;;;;;;4979005;28;20428;-51
2021/08/23 00:14:23;;;;;;;7.55;4.50;;;15.00;99.90;;;;;;4978700;28;20041;-53
2021/08/23 00:16:49;;;;;;;6.55;4.05;;;15.00;99.90;;;;;;4978590;28;20069;-51
2021/08/23 00:19:14;;;;;;;6.28;3.78;;;15.00;99.90;;;;;;4981698;28;20511;-54
2021/08/23 00:21:44;;;;;;;4.85;3.78;;;15.00;99.90;;;;;;4982455;28;20379;-50
2021/08/23 00:57:50;;;;;;;5.45;2.25;;;14.90;99.90;;;;;;4981104;28;20625;-51
2021/08/23 01:00:16;;;;;;;3.08;2.20;;;14.90;99.90;;;;;;4979271;28;20023;-54
2021/08/23 01:02:50;;;;;;;3.30;2.80;;;14.80;99.90;;;;;;4979451;28;20042;-52
2021/08/23 01:05:22;;;;;;;6.82;3.05;;;14.80;99.90;;;;;;4975129;28;20038;-52
2021/08/23 01:07:55;;;;;;;8.52;2.67;;;14.80;99.90;;;;;;4985681;28;20029;-56
2021/08/23 01:10:27;;;;;;;2.45;1.75;;;14.70;99.90;;;;;;4975333;28;20026;-51
2021/08/23 01:12:54;;;;;;;2.22;1.70;;;14.70;99.90;;;;;;4985937;28;20405;-53
2021/08/23 01:15:20;;;;;;;3.38;2.00;;;14.70;99.90;;;;;;4974179;28;20676;-50
2021/08/23 01:17:45;;;;;;;2.53;1.80;;;14.60;99.90;;;;;;4986551;28;20042;-54
2021/08/23 01:20:11;;;;;;;2.60;1.88;;;14.60;99.90;;;;;;4979235;28;20053;-51
2021/08/23 01:22:43;;;;;;;5.30;2.35;;;14.60;99.90;;;;;;4977864;28;20393;-48
2021/08/23 01:25:13;;;;;;;2.17;1.98;;;14.60;99.90;;;;;;4978937;28;20026;-53
2021/08/23 01:27:45;;;;;;;3.25;1.85;;;14.50;99.90;;;;;;4981120;28;20065;-56
2021/08/23 01:30:12;;;;;;;4.53;2.03;;;14.50;99.90;;;;;;4980782;28;20035;-51
2021/08/23 01:32:39;;;;;;;4.15;2.20;;;14.40;99.90;;;;;;4977907;28;20469;-52
2021/08/23 01:35:07;;;;;;;2.67;1.75;;;14.40;99.90;;;;;;4987257;28;20033;-52
2021/08/23 01:37:36;;;;;;;5.70;1.92;;;14.40;99.90;;;;;;4988304;28;20448;-48
2021/08/23 01:40:05;;;;;;;4.00;1.55;;;14.40;99.90;;;;;;4988936;28;20033;-50
2021/08/23 01:42:31;;;;;;;2.20;1.77;;;14.30;99.90;;;;;;4989594;28;20026;-53
2021/08/23 01:44:57;;;;;;;6.30;2.08;;;14.30;99.90;;;;;;4988939;28;20610;-51
2021/08/23 01:47:22;;;;;;;2.08;1.40;;;14.30;99.90;;;;;;4989004;28;20101;-48
2021/08/23 01:49:48;;;;;;;4.32;1.50;;;14.30;99.90;;;;;;4988995;28;20032;-49
2021/08/23 01:52:14;;;;;;;2.92;2.03;;;14.30;99.90;;;;;;4988482;28;20018;-49
2021/08/23 01:54:42;;;;;;;3.30;1.58;;;14.20;99.90;;;;;;4988598;28;20069;-53
2021/08/23 01:57:09;;;;;;;2.50;1.75;;;14.20;99.90;;;;;;4988635;28;20023;-52
2021/08/23 01:59:35;;;;;;;3.25;2.03;;;14.20;99.90;;;;;;4987461;28;20030;-50
2021/08/23 02:02:00;;;;;;;4.03;1.80;;;14.10;99.90;;;;;;4988982;28;20027;-53
2021/08/23 02:04:26;;;;;;;3.00;2.20;;;14.10;99.90;;;;;;4988464;28;20090;-49
2021/08/23 02:06:51;;;;;;;2.38;1.67;;;14.10;99.90;;;;;;4987622;28;20480;-55
2021/08/23 02:09:17;;;;;;;2.97;1.90;;;14.10;99.90;;;;;;4988556;28;20052;-51
2021/08/23 02:11:43;;;;;;;3.42;1.63;;;14.00;99.90;;;;;;4988778;28;20018;-55
2021/08/23 02:14:09;;;;;;;3.53;1.88;;;14.00;99.90;;;;;;4988820;28;20018;-49
2021/08/23 02:16:39;;;;;;;2.35;1.60;;;14.00;99.90;;;;;;4988055;28;20030;-50
2021/08/23 02:19:05;;;;;;;3.25;1.85;;;14.00;99.90;;;;;;4988947;28;20109;-50
2021/08/23 02:21:30;;;;;;;2.75;1.52;;;13.90;99.90;;;;;;4988799;28;20021;-51
2021/08/23 02:23:56;;;;;;;2.10;1.70;;;13.90;99.90;;;;;;4989311;28;20026;-51
2021/08/23 02:26:21;;;;;;;2.30;1.55;;;13.90;99.90;;;;;;4988428;28;20435;-49
2021/08/23 02:28:47;;;;;;;2.33;1.63;;;13.80;99.90;;;;;;4987635;28;20069;-49
2021/08/23 02:31:13;;;;;;;2.28;1.67;;;13.80;99.90;;;;;;4988885;28;20117;-48
2021/08/23 02:33:39;;;;;;;3.67;1.80;;;13.80;99.90;;;;;;4989105;28;20026;-50
2021/08/23 02:36:04;;;;;;;3.33;1.50;;;13.70;99.90;;;;;;4988292;28;20564;-54
2021/08/23 02:38:30;;;;;;;3.08;1.60;;;13.70;99.90;;;;;;4988420;28;20022;-51
2021/08/23 02:40:55;;;;;;;2.28;1.30;;;13.70;99.90;;;;;;4988609;28;20054;-51
2021/08/23 02:43:21;;;;;;;3.05;2.22;;;13.70;99.90;;;;;;4988517;28;20076;-51
2021/08/23 02:45:47;;;;;;;3.83;1.80;;;13.60;99.90;;;;;;4988520;28;20076;-55
2021/08/23 02:48:12;;;;;;;3.97;2.20;;;13.60;99.90;;;;;;4988777;28;20420;-49
2021/08/23 02:50:38;;;;;;;4.53;1.63;;;13.60;99.90;;;;;;4990187;28;20022;-53
2021/08/23 02:53:03;;;;;;;1.90;1.42;;;13.60;99.90;;;;;;4990659;28;20034;-51
2021/08/23 02:55:29;;;;;;;6.03;2.13;;;13.60;99.90;;;;;;4991498;28;20085;-53
2021/08/23 02:57:54;;;;;;;2.72;1.63;;;13.50;99.90;;;;;;4991516;28;20030;-49
2021/08/23 03:00:20;;;;;;;3.90;1.90;;;13.50;99.90;;;;;;4991767;28;20025;-49
2021/08/23 03:02:45;;;;;;;2.63;1.40;;;13.50;99.90;;;;;;4991608;28;20484;-53
2021/08/23 03:05:11;;;;;;;1.40;1.27;;;13.40;99.90;;;;;;4991086;28;20053;-52
2021/08/23 03:07:37;;;;;;;1.73;1.30;;;13.50;99.90;;;;;;4991588;28;20065;-53
2021/08/23 03:10:04;;;;;;;2.72;1.70;;;13.40;99.90;;;;;;4990168;28;20049;-49
2021/08/23 03:12:29;;;;;;;1.65;1.55;;;13.40;99.90;;;;;;4991515;28;20118;-51
2021/08/23 03:14:55;;;;;;;2.65;1.75;;;13.40;99.90;;;;;;4991131;28;20135;-48
2021/08/23 03:17:21;;;;;;;1.73;1.48;;;13.40;99.90;;;;;;4990934;28;20057;-50
2021/08/23 03:19:46;;;;;;;2.40;1.73;;;13.30;99.90;;;;;;4991610;28;20033;-50
2021/08/23 03:22:12;;;;;;;4.40;1.95;;;13.30;99.90;;;;;;4991431;28;20571;-53
2021/08/23 03:24:37;;;;;;;5.72;2.63;;;13.30;99.90;;;;;;4990490;28;20028;-49
2021/08/23 03:27:03;;;;;;;3.00;2.20;;;13.20;99.90;;;;;;4991158;28;20034;-51
2021/08/23 03:29:29;;;;;;;6.70;3.10;;;13.20;99.90;;;;;;4990812;28;20019;-51
2021/08/23 03:31:54;;;;;;;4.10;2.90;;;13.20;99.90;;;;;;4991245;28;20030;-52
2021/08/23 03:34:21;;;;;;;6.00;2.83;;;13.20;99.90;;;;;;4990885;28;20053;-52
2021/08/23 03:36:47;;;;;;;6.65;3.22;;;13.20;99.90;;;;;;4990905;28;20015;-50
2021/08/23 03:39:14;;;;;;;5.10;3.47;;;13.20;99.90;;;;;;4990862;28;20499;-53
2021/08/23 03:41:40;;;;;;;6.18;3.33;;;13.20;99.90;;;;;;4990462;28;20551;-48
2021/08/23 03:44:06;;;;;;;5.50;3.38;;;13.10;99.90;;;;;;4991093;28;20228;-51
2021/08/23 03:46:33;;;;;;;6.63;3.95;;;13.10;99.90;;;;;;4991050;28;20614;-48
2021/08/23 03:49:03;;;;;;;4.50;3.70;;;13.10;99.90;;;;;;4991006;28;20030;-47
2021/08/23 03:51:28;;;;;;;5.95;3.90;;;13.10;99.90;;;;;;4991177;28;20025;-51
2021/08/23 03:53:55;;;;;;;5.07;4.13;;;13.10;99.90;;;;;;4990379;28;20639;-49
2021/08/23 03:56:20;;;;;;;8.75;4.22;;;13.10;99.90;;;;;;4990641;28;20081;-49
2021/08/23 03:58:46;;;;;;;5.40;4.30;;;13.10;99.90;;;;;;4990713;28;20484;-49
2021/08/23 04:01:11;;;;;;;6.95;3.95;;;13.00;99.90;;;;;;4990533;28;20030;-49
2021/08/23 04:03:37;;;;;;;8.32;5.07;;;13.00;99.90;;;;;;4990813;28;20023;-51
2021/08/23 04:06:03;;;;;;;10.30;4.68;;;13.00;99.90;;;;;;4989245;28;20400;-52
2021/08/23 04:08:30;;;;;;;5.82;4.82;;;13.00;99.90;;;;;;4989665;28;20645;-54
2021/08/23 04:10:55;;;;;;;7.13;4.43;;;13.00;99.90;;;;;;4990995;28;20120;-56
2021/08/23 04:13:21;;;;;;;5.75;4.70;;;13.00;99.90;;;;;;4990542;28;20137;-53
2021/08/23 04:15:47;;;;;;;5.63;5.05;;;13.00;99.90;;;;;;4990174;28;20424;-52
2021/08/23 04:18:13;;;;;;;7.03;4.78;;;13.00;99.90;;;;;;4990695;28;20026;-51
2021/08/23 04:20:39;;;;;;;7.32;4.65;;;13.00;99.90;;;;;;4990254;28;20493;-49
2021/08/23 04:23:04;;;;;;;5.15;4.53;;;12.90;99.90;;;;;;4990133;28;20029;-52
2021/08/23 04:25:30;;;;;;;7.13;4.60;;;13.00;99.90;;;;;;4989942;28;20018;-50
2021/08/23 04:27:55;;;;;;;11.25;5.38;;;13.00;99.90;;;;;;4990076;28;20117;-50
2021/08/23 04:30:21;;;;;;;12.48;4.90;;;13.00;99.90;;;;;;4988993;28;20419;-53
2021/08/23 04:32:46;;;;;;;6.68;4.22;;;12.90;99.90;;;;;;4989744;28;20102;-50
2021/08/23 04:35:12;;;;;;;6.63;3.75;;;12.90;99.90;;;;;;4987967;28;21277;-52
2021/08/23 04:37:38;;;;;;;7.00;4.25;;;12.90;99.90;;;;;;4989859;28;20113;-49
2021/08/23 04:40:04;;;;;;;7.28;4.22;;;12.90;99.90;;;;;;4990069;28;20042;-51
2021/08/23 04:42:29;;;;;;;7.78;4.85;;;12.90;99.90;;;;;;4989799;28;20638;-48
2021/08/23 04:44:55;;;;;;;5.95;3.97;;;12.90;99.90;;;;;;4989111;28;20031;-53
2021/08/23 04:47:21;;;;;;;7.05;4.10;;;12.90;99.90;;;;;;4990381;28;20040;-50
2021/08/23 04:49:46;;;;;;;9.70;4.13;;;12.90;99.90;;;;;;4990442;28;20022;-48
2021/08/23 04:52:12;;;;;;;8.07;4.53;;;12.90;99.90;;;;;;4989646;28;20651;-52
2021/08/23 04:54:37;;;;;;;7.03;4.45;;;12.90;99.90;;;;;;4989374;28;20489;-53
2021/08/23 04:57:03;;;;;;;7.30;3.72;;;12.90;99.90;;;;;;4989345;28;20033;-51
2021/08/23 04:59:29;;;;;;;5.60;3.40;;;12.90;99.90;;;;;;4988301;28;20159;-53
2021/08/23 05:01:54;;;;;;;7.70;3.70;;;12.90;99.90;;;;;;4989720;28;20019;-50
2021/08/23 05:04:20;;;;;;;4.85;3.67;;;12.90;99.90;;;;;;4982059;28;20036;-52
2021/08/23 05:06:45;;;;;;;4.57;3.90;;;12.90;99.90;;;;;;4989336;28;20033;-54
2021/08/23 05:09:11;;;;;;;5.93;3.50;;;13.00;99.90;;;;;;4989141;28;20018;-55
2021/08/23 05:11:37;;;;;;;5.70;3.63;;;13.00;99.90;;;;;;4989540;28;20049;-50
2021/08/23 05:14:03;;;;;;;9.35;3.63;;;13.00;99.90;;;;;;4988742;28;20091;-48
2021/08/23 05:16:28;;;;;;;6.45;3.58;;;13.00;99.90;;;;;;4988042;28;20026;-52
2021/08/23 05:18:54;;;;;;;4.95;3.33;;;13.00;99.90;;;;;;4989627;28;20018;-53
2021/08/23 05:21:19;;;;;;;5.03;3.45;;;13.10;99.90;;;;;;4993946;28;20029;-54
2021/08/23 05:23:45;;;;;;;6.65;3.50;;;13.10;99.90;;;;;;4988064;28;20034;-51
2021/08/23 05:26:12;;;;;;;5.63;2.95;;;13.10;99.90;;;;;;4988651;28;20034;-51
2021/08/23 05:28:37;;;;;;;3.90;2.92;;;13.10;99.90;;;;;;4989185;28;20054;-52
2021/08/23 05:31:03;;;;;;;4.93;3.53;;;13.20;99.90;;;;;;5010635;23;20511;-51
2021/08/23 05:33:28;;;;;;;4.75;3.00;;;13.20;99.90;;;;;;4988480;28;20093;-51
2021/08/23 05:35:54;;;;;;;5.30;2.70;;;13.20;99.90;;;;;;4986158;28;20033;-51
2021/08/23 05:38:20;;;;;;;6.40;3.42;;;13.20;99.90;;;;;;4988659;28;20077;-49
2021/08/23 05:40:45;;;;;;;4.82;3.47;;;13.30;99.90;;;;;;4988780;28;20377;-49
2021/08/23 05:43:11;;;;;;;4.78;3.20;;;13.30;99.90;;;;;;4988460;28;20109;-49
2021/08/23 05:45:36;;;;;;;4.13;3.13;;;13.40;99.90;;;;;;4988037;28;20022;-50
2021/08/23 05:48:02;;;;;;;4.80;2.83;;;13.40;99.90;;;;;;4988697;28;20515;-49
2021/08/23 05:50:28;;;;;;;4.47;3.50;;;13.40;99.90;;;;;;4988805;28;20484;-50
2021/08/23 05:52:53;;;;;;;3.78;3.10;;;13.50;99.90;;;;;;4988347;28;20032;-49
2021/08/23 05:55:19;;;;;;;5.93;3.50;;;13.50;99.90;;;;;;4988369;28;20130;-51
2021/08/23 05:57:44;;;;;;;5.95;2.92;;;13.60;99.90;;;;;;4988723;28;20034;-53
2021/08/23 06:00:11;;;;;;;5.18;3.45;;;13.60;99.90;;;;;;4988127;28;20027;-51
2021/08/23 06:02:36;;;;;;;5.93;3.90;;;13.70;99.90;;;;;;4987862;28;20025;-49
2021/08/23 06:05:02;;;;;;;5.25;3.33;;;13.70;99.90;;;;;;4987318;28;20034;-49
2021/08/23 06:07:27;;;;;;;5.53;3.90;;;13.70;99.90;;;;;;4988784;28;20018;-50
2021/08/23 06:09:53;;;;;;;4.03;3.13;;;13.80;99.90;;;;;;4988771;28;20026;-49
2021/08/23 06:12:18;;;;;;;5.07;3.25;;;13.90;99.90;;;;;;4988211;28;20097;-50
2021/08/23 06:14:44;;;;;;;6.35;3.30;;;13.90;99.90;;;;;;4987173;28;20014;-51
2021/08/23 06:17:10;;;;;;;4.55;2.90;;;13.90;99.90;;;;;;4988902;28;20157;-50
2021/08/23 06:19:36;;;;;;;7.22;3.38;;;14.00;99.90;;;;;;4988766;28;20022;-51
2021/08/23 06:22:02;;;;;;;5.15;2.80;;;14.00;99.90;;;;;;4988667;28;20034;-51
2021/08/23 06:24:28;;;;;;;6.45;3.60;;;14.10;99.90;;;;;;4987971;28;20018;-50
2021/08/23 06:26:53;;;;;;;6.35;2.88;;;14.20;99.90;;;;;;4992271;28;20481;-52
2021/08/23 06:29:19;;;;;;;3.65;2.80;;;14.20;99.90;;;;;;4992462;28;20018;-52
2021/08/23 06:31:44;;;;;;;3.58;2.50;;;14.30;99.90;;;;;;4992020;28;20088;-51
2021/08/23 06:34:10;;;;;;;4.57;2.80;;;14.40;99.90;;;;;;4992122;28;20026;-50
2021/08/23 06:36:36;;;;;;;5.18;3.28;;;14.50;99.90;;;;;;4991361;28;20026;-52
2021/08/23 06:39:03;;;;;;;3.65;2.67;;;14.60;99.90;;;;;;4990643;28;20026;-51
2021/08/23 06:41:28;;;;;;;7.32;3.33;;;14.60;99.90;;;;;;4992029;28;20198;-50
2021/08/23 06:43:55;;;;;;;5.85;2.55;;;14.70;99.90;;;;;;4991856;28;20129;-51
2021/08/23 06:46:21;;;;;;;3.78;2.53;;;14.80;99.90;;;;;;4991755;28;20081;-49
2021/08/23 06:48:47;;;;;;;3.60;2.42;;;14.90;99.90;;;;;;4991538;28;20432;-49
2021/08/23 06:51:13;;;;;;;3.58;2.40;;;15.00;99.90;;;;;;4991735;28;20030;-49
2021/08/23 06:53:38;;;;;;;9.00;2.75;;;15.10;99.90;;;;;;4991894;28;20400;-50
2021/08/23 06:56:04;;;;;;;3.50;2.42;;;15.20;99.90;;;;;;4991670;28;20109;-50
2021/08/23 06:58:30;;;;;;;10.30;2.60;;;15.30;99.90;;;;;;4991526;28;20029;-50
2021/08/23 07:00:56;;;;;;;5.15;2.40;;;15.40;99.90;;;;;;4988424;28;20022;-49
2021/08/23 07:03:21;;;;;;;4.90;2.45;;;15.60;99.90;;;;;;4974778;28;20011;-49
2021/08/23 07:05:47;;;;;;;6.15;2.00;;;15.70;99.90;;;;;;4991272;28;20064;-48
2021/08/23 07:08:14;;;;;;;3.03;2.08;;;15.80;99.90;;;;;;4990116;28;20045;-50
2021/08/23 07:10:40;;;;;;;3.17;1.90;;;16.00;99.90;;;;;;4991366;28;20029;-50
2021/08/23 07:13:06;;;;;;;3.83;2.30;;;16.10;99.90;;;;;;4991042;28;20034;-50
2021/08/23 07:15:31;;;;;;;3.90;2.15;;;16.20;99.90;;;;;;4991213;28;20033;-50
2021/08/23 07:17:57;;;;;;;3.80;2.00;;;16.40;99.90;;;;;;4991831;28;20679;-49
2021/08/23 07:20:22;;;;;;;5.47;1.95;;;16.50;99.90;;;;;;4992171;28;20061;-50
2021/08/23 07:22:48;;;;;;;4.30;1.60;;;16.70;99.90;;;;;;4991390;28;20521;-49
2021/08/23 07:25:13;;;;;;;2.80;1.83;;;16.80;99.90;;;;;;4989092;28;20029;-49
2021/08/23 07:27:39;;;;;;;2.58;1.85;;;17.00;99.90;;;;;;4986370;28;20029;-48
2021/08/23 07:30:06;;;;;;;4.15;1.65;;;17.10;99.90;;;;;;4982800;28;20027;-50
2021/08/23 07:32:32;;;;;;;2.85;1.55;;;17.30;99.90;;;;;;4976688;28;20377;-50
2021/08/23 07:34:58;;;;;;;2.92;1.67;;;17.50;99.90;;;;;;4989738;28;20026;-49
2021/08/23 07:37:24;;;;;;;2.42;1.45;;;17.70;99.90;;;;;;4987781;28;20033;-52
2021/08/23 07:39:50;;;;;;;4.53;1.75;;;17.80;99.90;;;;;;4989845;28;20022;-50
2021/08/23 07:42:16;;;;;;;4.38;1.67;;;17.90;99.90;;;;;;4989454;28;20566;-47
2021/08/23 07:44:42;;;;;;;2.90;1.60;;;18.10;99.90;;;;;;4989550;28;20023;-51
2021/08/23 07:47:08;;;;;;;5.18;1.63;;;18.10;99.90;;;;;;4991514;28;20076;-50
2021/08/23 07:49:35;;;;;;;1.48;1.38;;;18.30;99.90;;;;;;4990076;28;20101;-49
2021/08/23 07:52:01;;;;;;;3.38;1.30;;;18.50;99.90;;;;;;4988973;28;20477;-50
2021/08/23 07:54:26;;;;;;;6.03;1.80;;;18.70;99.90;;;;;;4990480;28;20061;-50
2021/08/23 07:56:52;;;;;;;3.85;1.45;;;18.80;99.90;;;;;;4990285;28;20581;-49
2021/08/23 07:59:18;;;;;;;3.20;1.73;;;18.80;99.90;;;;;;4988925;28;20477;-49
2021/08/23 08:01:43;;;;;;;6.50;1.23;;;18.70;99.90;;;;;;4990418;28;20096;-49
2021/08/23 08:04:09;;;;;;;3.78;1.60;;;18.80;99.90;;;;;;4989751;28;20018;-52
2021/08/23 08:06:35;;;;;;;3.83;1.20;;;18.90;99.90;;;;;;4989783;28;20021;-50
2021/08/23 08:09:01;;;;;;;2.83;1.67;;;19.00;99.90;;;;;;4989803;28;20109;-50
2021/08/23 08:11:26;;;;;;;2.92;1.15;;;19.00;99.90;;;;;;4990256;28;20392;-50
2021/08/23 08:13:52;;;;;;;3.10;1.27;;;19.00;99.90;;;;;;4990431;28;20432;-50
2021/08/23 08:16:19;;;;;;;1.60;0.93;;;19.30;99.90;;;;;;4990004;28;20393;-51
2021/08/23 08:18:47;;;;;;;3.10;1.40;;;19.50;99.90;;;;;;4989154;28;20404;-51
2021/08/23 08:21:13;;;;;;;2.90;1.30;;;19.60;99.90;;;;;;4990366;28;20029;-51
2021/08/23 08:23:38;;;;;;;2.38;1.30;;;19.70;99.90;;;;;;4990714;28;20018;-54
2021/08/23 08:26:04;;;;;;;2.10;1.05;;;20.00;99.90;;;;;;4989830;28;20018;-50
2021/08/23 08:28:32;;;;;;;5.40;1.58;;;19.90;99.90;;;;;;4990128;28;20058;-53
2021/08/23 08:30:58;;;;;;;2.83;1.13;;;20.00;99.90;;;;;;4988407;28;20033;-50
2021/08/23 08:33:23;;;;;;;1.75;1.02;;;20.00;99.90;;;;;;4990335;28;20034;-50
2021/08/23 08:35:49;;;;;;;2.15;1.27;;;20.10;99.90;;;;;;4986433;28;20022;-49
2021/08/23 08:38:14;;;;;;;2.40;1.40;;;20.40;99.90;;;;;;4989762;28;20029;-54
2021/08/23 08:40:40;;;;;;;4.30;1.02;;;20.60;99.90;;;;;;4989917;28;20065;-50
2021/08/23 08:43:06;;;;;;;2.47;1.40;;;20.60;99.90;;;;;;4988374;28;20023;-51
2021/08/23 08:45:31;;;;;;;3.63;1.10;;;20.70;99.90;;;;;;4989420;28;20469;-49
2021/08/23 08:48:02;;;;;;;1.27;0.88;;;20.70;99.90;;;;;;4989155;28;20061;-50
2021/08/23 08:50:28;;;;;;;2.75;1.13;;;20.70;99.90;;;;;;4989864;28;20622;-49
2021/08/23 08:52:53;;;;;;;3.80;1.40;;;20.80;99.90;;;;;;4989816;28;20026;-51
2021/08/23 08:55:19;;;;;;;1.88;0.90;;;20.80;99.90;;;;;;4985547;28;20097;-48
2021/08/23 08:57:45;;;;;;;2.70;1.17;;;20.80;99.90;;;;;;4989234;28;20061;-52
2021/08/23 09:00:11;;;;;;;4.80;1.23;;;20.80;99.90;;;;;;4989915;28;20106;-50
2021/08/23 09:02:37;;;;;;;2.67;1.20;;;20.80;99.90;;;;;;4989538;28;20555;-53
2021/08/23 09:05:05;;;;;;;0.95;0.90;;;20.70;99.90;;;;;;4988837;28;20026;-49
2021/08/23 09:07:37;;;;;;;2.00;1.05;;;20.70;99.90;;;;;;4988115;28;20018;-49
2021/08/23 09:10:24;;;;;;;1.80;1.23;;;20.70;99.90;;;;;;4989420;28;20036;-50
2021/08/23 09:13:06;;;;;;;;;;;20.70;99.90;;;;;;4988501;28;20092;-52
2021/08/23 09:15:34;;;;;;;2.97;1.27;;;20.70;99.90;;;;;;4973306;28;20347;-50
2021/08/23 09:18:08;;;;;;;2.15;1.17;;;20.80;99.90;;;;;;4976992;28;20022;-51
2021/08/23 09:20:36;;;;;;;3.05;1.42;;;20.80;99.90;;;;;;4972752;28;20019;-51
2021/08/23 09:23:13;;;;;;;3.33;1.08;;;20.80;99.90;;;;;;4979560;28;20540;-50
2021/08/23 09:25:39;;;;;;;3.17;1.27;;;20.70;99.90;;;;;;4987285;28;20018;-50
2021/08/23 09:28:06;;;;;;;3.08;1.20;;;20.70;99.90;;;;;;4988498;28;20033;-49
2021/08/23 09:30:33;;;;;;;1.00;0.90;;;20.70;99.90;;;;;;4987375;28;20018;-50
2021/08/23 09:33:02;;;;;;;2.05;1.30;;;20.60;99.90;;;;;;4988534;28;20038;-50
2021/08/23 09:35:35;;;;;;;2.72;1.13;;;20.50;99.90;;;;;;4988635;28;20109;-51
2021/08/23 09:38:02;;;;;;;3.60;1.30;;;20.60;99.90;;;;;;4989198;28;20023;-52
2021/08/23 09:40:33;;;;;;;3.45;1.25;;;20.60;99.90;;;;;;4988660;28;20041;-48
2021/08/23 09:43:08;;;;;;;1.52;0.90;;;20.70;99.90;;;;;;4988380;28;20405;-52
2021/08/23 09:45:33;;;;;;;2.65;1.10;;;20.70;99.90;;;;;;4988465;28;20019;-50
2021/08/23 09:48:05;;;;;;;2.30;0.82;;;20.60;99.90;;;;;;4988614;28;20113;-49
2021/08/23 09:50:50;;;;;;;2.10;1.30;;;20.70;99.90;;;;;;4988925;28;20026;-51
2021/08/23 09:53:20;;;;;;;1.00;0.82;;;20.80;99.90;;;;;;4989193;28;20030;-51
2021/08/23 09:55:50;;;;;;;2.67;1.20;;;20.90;99.90;;;;;;4988670;28;20026;-50
2021/08/23 09:58:15;;;;;;;1.77;1.15;;;20.90;99.90;;;;;;4989035;28;20088;-52
2021/08/23 10:00:43;;;;;;;1.70;1.38;;;21.00;99.90;;;;;;4992372;28;20027;-49
2021/08/23 10:03:14;;;;;;;2.33;1.17;;;21.10;99.90;;;;;;4992997;28;20532;-52
2021/08/23 10:05:54;;;;;;;2.13;1.23;;;21.20;99.90;;;;;;4992129;28;20046;-51
2021/08/23 10:08:23;;;;;;;2.17;1.25;;;21.20;99.90;;;;;;4984761;28;20054;-51
2021/08/23 10:10:50;;;;;;;2.03;1.45;;;21.20;99.90;;;;;;4992191;28;20053;-50
2021/08/23 10:13:16;;;;;;;2.42;1.02;;;21.10;99.90;;;;;;4992856;28;20030;-51
2021/08/23 10:15:42;;;;;;;1.38;0.98;;;21.10;99.90;;;;;;4992471;28;20030;-52
2021/08/23 10:18:08;;;;;;;2.00;1.30;;;21.10;99.90;;;;;;4992394;28;20097;-51
2021/08/23 10:20:36;;;;;;;1.08;0.98;;;21.10;99.90;;;;;;4992494;28;20030;-51
2021/08/23 10:23:02;;;;;;;1.70;1.23;;;21.00;99.90;;;;;;4992498;28;20102;-48
2021/08/23 10:25:28;;;;;;;2.00;1.17;;;21.00;99.90;;;;;;4991860;28;20467;-51
2021/08/23 10:28:12;;;;;;;2.67;1.33;;;21.00;99.90;;;;;;4992240;28;20022;-50
2021/08/23 10:30:39;;;;;;;1.30;1.20;;;21.00;99.90;;;;;;4986185;28;20073;-52
2021/08/23 10:33:17;;;;;;;2.75;1.15;;;21.10;99.90;;;;;;4975393;28;20670;-54
2021/08/23 10:35:50;;;;;;;1.70;0.82;;;21.10;99.90;;;;;;4972505;28;20030;-53
2021/08/23 10:38:25;;;;;;;3.17;1.20;;;21.20;99.90;;;;;;4974395;28;20029;-55
2021/08/23 10:41:10;;;;;;;3.27;1.20;;;21.20;99.90;;;;;;4973636;28;20050;-55
2021/08/23 10:44:03;;;;;;;1.02;0.93;;;21.30;99.90;;;;;;4975412;28;20026;-56
2021/08/23 10:46:37;;;;;;;0.93;0.80;;;21.40;99.90;;;;;;4975108;28;20054;-55
2021/08/23 10:49:11;;;;;;;2.00;0.98;;;21.50;99.90;;;;;;4982345;28;20026;-54
2021/08/23 10:51:39;;;;;;;2.58;1.05;;;21.50;98.70;;;;;;4991859;28;20057;-54
2021/08/23 10:54:33;;;;;;;3.47;1.17;;;21.40;98.50;;;;;;4991548;28;20034;-53
2021/08/23 10:56:59;;;;;;;0.95;0.80;;;21.40;98.20;;;;;;4987575;28;20392;-53
2021/08/23 10:59:25;;;;;;;1.42;1.10;;;21.40;99.90;;;;;;4991569;28;20026;-56
2021/08/23 11:01:58;;;;;;;0.88;0.85;;;21.40;99.90;;;;;;4991374;28;20026;-55
2021/08/23 11:04:34;;;;;;;3.45;1.02;;;21.40;98.30;;;;;;4987502;28;20022;-56
2021/08/23 11:07:01;;;;;;;2.90;1.00;;;21.50;95.50;;;;;;4991300;28;20031;-54
2021/08/23 11:09:35;;;;;;;2.83;1.20;;;21.50;96.10;;;;;;4979781;28;20058;-55
2021/08/23 11:12:12;;;;;;;1.38;0.90;;;21.30;96.00;;;;;;4990362;28;20026;-57
2021/08/23 11:14:43;;;;;;;2.60;1.10;;;21.30;95.70;;;;;;4989840;28;20087;-54
2021/08/23 11:17:09;;;;;;;1.83;0.80;;;21.20;97.00;;;;;;4990132;28;20037;-55
2021/08/23 11:19:38;;;;;;;3.47;0.88;;;21.20;96.80;;;;;;4990262;28;20026;-52
2021/08/23 11:22:04;;;;;;;2.05;1.50;;;21.30;96.10;;;;;;4990082;28;20112;-55
2021/08/23 11:24:34;;;;;;;4.88;1.02;;;21.30;96.70;;;;;;4990078;28;20054;-55
2021/08/23 11:27:02;;;;;;;1.10;0.98;;;21.30;96.30;;;;;;4990956;28;20388;-55
2021/08/23 11:29:34;;;;;;;0.80;0.52;;;21.40;96.10;;;;;;4991084;28;20053;-56
2021/08/23 11:32:07;;;;;;;2.08;0.70;;;21.40;96.50;;;;;;5014632;23;20031;-51
2021/08/23 11:34:33;;;;;;;1.67;0.75;;;21.30;96.20;;;;;;4989078;28;20030;-49
2021/08/23 11:37:06;;;;;;;1.02;0.70;;;21.20;95.80;;;;;;4990818;28;20038;-48
2021/08/23 11:39:34;;;;;;;1.92;0.63;;;21.20;95.00;;;;;;4990826;28;20109;-51
2021/08/23 11:42:04;;;;;;;2.25;0.90;;;21.20;95.20;;;;;;4989422;28;20022;-47
2021/08/23 11:44:31;;;;;;;2.35;1.10;;;21.20;94.40;;;;;;4968519;28;20023;-49
2021/08/23 11:47:03;;;;;;;1.83;1.10;;;21.20;95.70;;;;;;4971421;28;20018;-52
2021/08/23 11:49:38;;;;;;;1.92;0.90;;;21.20;95.80;;;;;;4968709;28;20098;-47
2021/08/23 11:52:19;;;;;;;1.52;0.98;;;21.30;96.60;;;;;;4970671;28;20031;-48
2021/08/23 11:54:49;;;;;;;1.00;0.90;;;21.40;96.20;;;;;;4965813;28;20030;-48
2021/08/23 11:57:23;;;;;;;1.27;0.77;;;21.50;96.40;;;;;;4969492;28;20101;-51
2021/08/23 11:59:56;;;;;;;1.90;0.73;;;21.50;96.90;;;;;;4965998;28;20102;-50
2021/08/23 12:02:28;;;;;;;1.23;1.00;;;21.70;96.20;;;;;;4968593;28;20025;-49
2021/08/23 12:05:04;;;;;;;4.85;1.42;;;21.70;96.00;;;;;;4970943;28;20421;-51
2021/08/23 12:07:47;;;;;;;1.35;0.70;;;21.70;94.10;;;;;;4968244;28;20019;-49
2021/08/23 12:10:34;;;;;;;1.05;0.70;;;21.60;95.10;;;;;;4968265;28;20100;-50
2021/08/23 12:13:06;;;;;;;1.27;0.82;;;21.60;94.00;;;;;;4964562;28;20069;-52
2021/08/23 12:15:32;;;;;;;0.60;0.60;;;21.50;95.00;;;;;;4965215;28;20419;-51
2021/08/23 12:18:09;;;;;;;3.60;1.63;;;21.50;93.80;;;;;;4967735;28;20524;-50
2021/08/23 12:20:34;;;;;;;1.42;0.50;;;21.60;93.60;;;;;;4965280;28;20601;-53
2021/08/23 12:23:01;;;;;;;1.15;0.90;;;21.60;93.50;;;;;;4967038;28;20023;-49
2021/08/23 12:25:27;;;;;;;1.60;0.80;;;21.70;94.10;;;;;;4969622;28;20015;-54
2021/08/23 12:27:52;;;;;;;1.02;0.65;;;21.70;93.50;;;;;;4968672;28;20025;-53
2021/08/23 12:30:26;;;;;;;1.95;0.95;;;21.80;94.90;;;;;;4968515;28;20122;-52
2021/08/23 12:32:52;;;;;;;1.23;0.60;;;21.80;94.10;;;;;;4965264;28;20034;-49
2021/08/23 12:35:31;;;;;;;0.73;0.73;;;21.90;95.20;;;;;;4966282;28;20026;-51
2021/08/23 12:37:57;;;;;;;1.90;1.20;;;21.90;93.70;;;;;;4969929;28;20694;-49
2021/08/23 12:40:23;;;;;;;1.40;0.88;;;21.90;92.90;;;;;;4966954;28;20102;-54
2021/08/23 12:42:58;;;;;;;1.45;0.98;;;21.90;93.20;;;;;;4967246;28;20105;-52
2021/08/23 12:45:24;;;;;;;1.02;0.80;;;21.90;93.60;;;;;;4956017;28;20018;-47
2021/08/23 12:47:52;;;;;;;1.40;1.10;;;21.70;93.00;;;;;;4960961;28;20604;-53
2021/08/23 12:50:18;;;;;;;1.35;1.00;;;21.80;95.60;;;;;;4972860;28;20385;-48
2021/08/23 12:52:44;;;;;;;0.77;0.65;;;21.90;93.50;;;;;;4968741;28;20531;-48
2021/08/23 12:55:09;;;;;;;2.17;1.15;;;22.00;93.70;;;;;;4969520;28;20114;-53
2021/08/23 12:57:35;;;;;;;1.25;1.05;;;22.10;92.70;;;;;;4969874;28;20029;-48
2021/08/23 13:00:01;;;;;;;0.93;0.77;;;22.20;92.30;;;;;;4969511;28;20034;-51
2021/08/23 13:02:26;;;;;;;1.98;1.08;;;22.20;92.80;;;;;;4969926;28;20386;-52
2021/08/23 13:04:52;;;;;;;4.15;1.77;;;22.20;93.10;;;;;;4969846;28;20015;-50
2021/08/23 13:07:17;;;;;;;1.52;1.05;;;22.30;93.60;;;;;;4969800;28;20023;-51
2021/08/23 13:09:43;;;;;;;1.77;0.80;;;22.30;91.90;;;;;;4969693;28;20027;-49
2021/08/23 13:12:09;;;;;;;2.10;1.10;;;22.40;91.80;;;;;;4967777;28;20023;-51
2021/08/23 13:14:34;;;;;;;1.08;0.93;;;22.30;91.30;;;;;;4969609;28;20026;-50
2021/08/23 13:17:00;;;;;;;1.98;1.30;;;22.20;90.70;;;;;;4964386;28;20034;-54
2021/08/23 13:19:25;;;;;;;1.30;0.80;;;22.30;92.30;;;;;;4969493;28;20461;-48
2021/08/23 13:21:51;;;;;;;1.77;0.68;;;22.30;91.50;;;;;;4969892;28;20442;-49
2021/08/23 13:24:17;;;;;;;1.20;0.80;;;22.40;92.10;;;;;;4967967;28;20082;-47